Time;durP1;ratioP1;P1;durP2;ratioP2;P2;SDS_P1;SDS_P2;PMS_P1;PMS_P2;Temp;Humidity;BMP_temperature;BMP_pressure;BME280_temperature;BME280_humidity;BME280_pressure;Samples;Min_cycle;Max_cycle;Signal;HPM_P1;HPM_P2
2022/03/17 00:00:10;;;;;;;27.83;20.50;;;12.70;99.90;;;;;;4143876;28;20462;-68
2022/03/17 00:02:10;;;;;;;30.30;20.90;;;12.70;99.90;;;;;;4144613;28;20053;-67
2022/03/17 00:04:11;;;;;;;28.45;19.50;;;12.70;99.90;;;;;;4144026;28;20029;-67
2022/03/17 00:06:13;;;;;;;26.48;19.17;;;12.70;99.90;;;;;;4144001;28;20417;-66
2022/03/17 00:08:16;;;;;;;28.90;20.30;;;12.70;99.90;;;;;;4144470;28;20088;-67
2022/03/17 00:10:17;;;;;;;26.38;19.23;;;12.70;99.90;;;;;;4143133;28;20140;-66
2022/03/17 00:12:18;;;;;;;25.48;18.95;;;12.70;99.90;;;;;;4142150;28;20034;-66
2022/03/17 00:14:19;;;;;;;28.40;19.45;;;12.70;99.90;;;;;;4144897;28;20037;-67
2022/03/17 00:16:20;;;;;;;28.08;19.73;;;12.70;99.90;;;;;;4143828;28;20553;-66
2022/03/17 00:18:21;;;;;;;27.10;19.65;;;12.70;99.90;;;;;;4143914;28;20053;-66
2022/03/17 00:20:23;;;;;;;29.92;21.15;;;12.70;99.90;;;;;;4143114;28;20042;-66
2022/03/17 00:22:24;;;;;;;29.03;20.20;;;12.70;99.90;;;;;;4143760;28;20509;-66
2022/03/17 00:24:24;;;;;;;29.02;20.30;;;12.70;99.90;;;;;;4144601;28;20168;-66
2022/03/17 00:26:25;;;;;;;28.58;20.75;;;12.70;99.90;;;;;;4143395;28;20446;-66
2022/03/17 00:28:25;;;;;;;25.17;18.52;;;12.70;99.90;;;;;;4143398;28;20044;-66
2022/03/17 00:30:26;;;;;;;30.30;21.02;;;12.70;99.90;;;;;;4142701;28;20473;-66
2022/03/17 00:32:27;;;;;;;25.42;18.77;;;12.70;99.90;;;;;;4143735;28;20073;-67
2022/03/17 00:34:28;;;;;;;30.75;19.58;;;12.70;99.90;;;;;;4143641;28;20034;-66
2022/03/17 00:36:29;;;;;;;30.25;21.27;;;12.70;99.90;;;;;;4142519;28;20397;-67
2022/03/17 00:38:30;;;;;;;27.17;19.63;;;12.60;99.90;;;;;;4144291;28;20492;-66
2022/03/17 00:40:31;;;;;;;27.17;18.73;;;12.60;99.90;;;;;;4144301;28;20073;-66
2022/03/17 00:42:32;;;;;;;24.42;18.60;;;12.70;99.90;;;;;;4142339;28;20046;-66
2022/03/17 00:44:32;;;;;;;29.75;20.80;;;12.70;99.90;;;;;;4142469;28;20041;-66
2022/03/17 00:46:33;;;;;;;28.63;19.35;;;12.60;99.90;;;;;;4142196;28;20042;-66
2022/03/17 00:48:34;;;;;;;30.58;21.55;;;12.60;99.90;;;;;;4144634;28;20038;-66
2022/03/17 00:50:35;;;;;;;28.88;20.60;;;12.60;99.90;;;;;;4143159;28;20065;-66
2022/03/17 00:52:36;;;;;;;28.35;20.25;;;12.60;99.90;;;;;;4142695;28;20133;-66
2022/03/17 00:54:39;;;;;;;25.10;19.58;;;12.60;99.90;;;;;;4144588;28;20523;-67
2022/03/17 00:56:39;;;;;;;29.92;20.58;;;12.60;99.90;;;;;;4141926;28;20493;-66
2022/03/17 00:58:45;;;;;;;26.35;19.50;;;12.60;99.90;;;;;;4145335;28;20041;-67
2022/03/17 01:00:46;;;;;;;28.50;20.48;;;12.60;99.90;;;;;;4141906;28;20128;-66
2022/03/17 01:02:53;;;;;;;27.52;19.80;;;12.60;99.90;;;;;;4142841;28;20045;-67
2022/03/17 01:04:53;;;;;;;27.85;20.20;;;12.60;99.90;;;;;;4127003;28;20195;-67
2022/03/17 01:06:54;;;;;;;29.95;20.58;;;12.60;99.90;;;;;;4142700;28;20581;-67
2022/03/17 01:08:54;;;;;;;29.88;21.08;;;12.60;99.90;;;;;;4143270;28;20188;-66
2022/03/17 01:10:55;;;;;;;33.97;21.55;;;12.70;99.90;;;;;;4144013;28;20049;-66
2022/03/17 01:12:56;;;;;;;28.55;19.92;;;12.60;99.90;;;;;;4143344;28;20050;-66
2022/03/17 01:14:56;;;;;;;30.98;21.38;;;12.60;99.90;;;;;;4144270;28;20030;-66
2022/03/17 01:16:57;;;;;;;28.30;20.02;;;12.60;99.90;;;;;;4142604;28;20452;-66
2022/03/17 01:18:57;;;;;;;28.00;20.58;;;12.60;99.90;;;;;;4142325;28;20465;-66
2022/03/17 01:20:58;;;;;;;27.58;20.20;;;12.60;99.90;;;;;;4141675;28;20053;-66
2022/03/17 01:23:00;;;;;;;29.42;21.27;;;12.60;99.90;;;;;;4144280;28;20045;-66
2022/03/17 01:25:01;;;;;;;28.77;20.57;;;12.60;99.90;;;;;;4142708;28;20033;-66
2022/03/17 01:27:02;;;;;;;30.05;20.60;;;12.60;99.90;;;;;;4141807;28;20509;-66
2022/03/17 01:29:02;;;;;;;29.52;21.67;;;12.60;99.90;;;;;;4143440;28;20046;-66
2022/03/17 01:31:03;;;;;;;32.40;22.00;;;12.60;99.90;;;;;;4142984;28;20034;-66
2022/03/17 01:33:04;;;;;;;28.88;20.17;;;12.60;99.90;;;;;;4142591;28;20042;-66
2022/03/17 01:35:07;;;;;;;31.50;20.77;;;12.60;99.90;;;;;;4142966;28;20087;-67
2022/03/17 01:37:08;;;;;;;30.40;21.65;;;12.60;99.90;;;;;;4143312;28;20156;-66
2022/03/17 01:39:09;;;;;;;29.85;21.15;;;12.60;99.90;;;;;;4143018;28;20077;-66
2022/03/17 01:41:09;;;;;;;30.55;21.65;;;12.60;99.90;;;;;;4144960;28;20041;-66
2022/03/17 01:43:10;;;;;;;32.05;21.77;;;12.50;99.90;;;;;;4142098;28;20112;-67
2022/03/17 01:45:11;;;;;;;29.58;21.25;;;12.50;99.90;;;;;;4143458;28;20045;-68
2022/03/17 01:47:29;;;;;;;30.50;21.75;;;12.50;99.90;;;;;;4142094;28;20056;-66
2022/03/17 01:49:30;;;;;;;33.65;22.77;;;12.60;99.90;;;;;;4161186;28;20507;-66
2022/03/17 01:51:31;;;;;;;29.85;20.73;;;12.60;99.90;;;;;;4144459;28;20034;-66
2022/03/17 01:53:32;;;;;;;29.73;21.25;;;12.60;99.90;;;;;;4144713;28;20470;-66
2022/03/17 01:55:33;;;;;;;30.35;20.73;;;12.60;99.90;;;;;;4147142;28;20041;-66
2022/03/17 01:57:34;;;;;;;29.25;20.05;;;12.60;99.90;;;;;;4146362;28;20041;-66
2022/03/17 01:59:36;;;;;;;31.63;22.17;;;12.60;99.90;;;;;;4147511;28;20034;-66
2022/03/17 02:01:38;;;;;;;30.48;21.40;;;12.60;99.90;;;;;;4144226;28;20069;-67
2022/03/17 02:03:43;;;;;;;27.77;20.67;;;12.60;99.90;;;;;;4145896;28;20452;-67
2022/03/17 02:05:43;;;;;;;25.73;19.40;;;12.60;99.90;;;;;;4141436;28;20050;-66
2022/03/17 02:07:49;;;;;;;32.55;21.92;;;12.60;99.90;;;;;;4148160;28;20030;-66
2022/03/17 02:09:49;;;;;;;31.58;21.58;;;12.60;99.90;;;;;;4143325;28;20389;-66
2022/03/17 02:14:12;;;;;;;27.48;19.30;;;12.70;99.90;;;;;;4144522;28;20065;-67
2022/03/17 02:16:12;;;;;;;27.25;19.58;;;12.60;99.90;;;;;;4145542;28;20040;-66
2022/03/17 02:18:16;;;;;;;29.45;21.33;;;12.70;99.90;;;;;;4147519;28;20117;-67
2022/03/17 02:20:17;;;;;;;28.38;20.80;;;12.70;99.90;;;;;;4144181;28;20048;-66
2022/03/17 02:22:22;;;;;;;28.20;20.35;;;12.60;99.90;;;;;;4148529;28;20126;-66
2022/03/17 02:26:41;;;;;;;26.63;20.17;;;12.60;99.90;;;;;;4149814;28;20033;-67
2022/03/17 02:28:42;;;;;;;27.00;20.60;;;12.60;99.90;;;;;;4146231;28;20036;-67
2022/03/17 02:30:42;;;;;;;28.20;20.63;;;12.60;99.90;;;;;;4139529;28;20030;-66
2022/03/17 02:32:44;;;;;;;28.00;20.45;;;12.60;99.90;;;;;;4145830;28;20426;-67
2022/03/17 02:34:45;;;;;;;27.30;20.07;;;12.60;99.90;;;;;;4159960;28;20478;-66
2022/03/17 02:36:48;;;;;;;27.27;20.45;;;12.60;99.90;;;;;;4148723;28;20065;-66
2022/03/17 02:38:48;;;;;;;29.77;20.35;;;12.60;99.90;;;;;;4144693;28;20030;-66
2022/03/17 02:40:52;;;;;;;26.50;19.50;;;12.60;99.90;;;;;;4144689;28;20121;-66
2022/03/17 02:42:54;;;;;;;27.83;20.27;;;12.60;99.90;;;;;;4144855;28;20041;-67
2022/03/17 02:44:55;;;;;;;26.98;19.50;;;12.70;99.90;;;;;;4145560;28;20038;-66
2022/03/17 02:46:55;;;;;;;27.35;20.45;;;12.70;99.90;;;;;;4143060;28;20042;-66
2022/03/17 02:48:56;;;;;;;28.73;20.73;;;12.70;99.90;;;;;;4145526;28;20417;-66
2022/03/17 02:50:56;;;;;;;27.77;20.45;;;12.70;99.90;;;;;;4146265;28;20037;-66
2022/03/17 02:52:59;;;;;;;27.00;19.67;;;12.70;99.90;;;;;;4144569;28;20116;-66
2022/03/17 02:54:59;;;;;;;29.45;20.63;;;12.60;99.90;;;;;;4144327;28;20046;-66
2022/03/17 02:57:00;;;;;;;26.80;19.17;;;12.60;99.90;;;;;;4142131;28;20116;-66
2022/03/17 02:59:01;;;;;;;22.98;18.20;;;12.70;99.90;;;;;;4146962;28;20037;-67
2022/03/17 03:01:01;;;;;;;30.05;21.63;;;12.70;99.90;;;;;;4129219;28;20129;-66
2022/03/17 03:03:03;;;;;;;25.80;19.67;;;12.60;99.90;;;;;;4146311;28;20398;-66
2022/03/17 03:05:05;;;;;;;29.15;21.70;;;12.60;99.90;;;;;;4144200;28;20056;-67
2022/03/17 03:07:06;;;;;;;30.05;20.60;;;12.60;99.90;;;;;;4146453;28;20042;-66
2022/03/17 03:09:06;;;;;;;28.10;20.95;;;12.60;99.90;;;;;;4143676;28;20030;-66
2022/03/17 03:11:07;;;;;;;28.38;19.88;;;12.50;99.90;;;;;;4144495;28;20046;-67
2022/03/17 03:13:09;;;;;;;27.48;19.73;;;12.60;99.90;;;;;;4143523;28;20046;-66
2022/03/17 03:15:09;;;;;;;27.23;20.00;;;12.60;99.90;;;;;;4146525;28;20088;-67
2022/03/17 03:17:10;;;;;;;30.02;20.17;;;12.60;99.90;;;;;;4146112;28;20038;-66
2022/03/17 03:19:10;;;;;;;27.00;19.50;;;12.60;99.90;;;;;;4144979;28;20527;-66
2022/03/17 03:21:11;;;;;;;29.08;19.25;;;12.60;99.90;;;;;;4147625;28;20148;-66
2022/03/17 03:23:12;;;;;;;33.67;20.42;;;12.60;99.90;;;;;;4143997;28;20053;-66
2022/03/17 03:25:12;;;;;;;28.40;20.38;;;12.60;99.90;;;;;;4143557;28;20496;-68
2022/03/17 03:27:13;;;;;;;26.50;19.85;;;12.70;99.90;;;;;;4144333;28;20069;-66
2022/03/17 03:29:23;;;;;;;25.27;18.45;;;12.60;99.90;;;;;;4143501;28;20052;-66
2022/03/17 03:31:23;;;;;;;28.13;19.90;;;12.60;99.90;;;;;;4144164;28;20105;-66
2022/03/17 03:33:24;;;;;;;27.83;20.60;;;12.70;99.90;;;;;;4142332;28;20046;-67
2022/03/17 03:37:44;;;;;;;29.75;18.50;;;12.60;99.90;;;;;;4144446;28;20041;-67
2022/03/17 03:39:44;;;;;;;27.98;19.02;;;12.70;99.90;;;;;;4149944;28;20030;-66
2022/03/17 03:41:45;;;;;;;27.20;20.23;;;12.70;99.90;;;;;;4141556;28;20042;-66
2022/03/17 03:43:45;;;;;;;27.23;19.98;;;12.70;99.90;;;;;;4146170;28;20116;-66
2022/03/17 03:45:47;;;;;;;27.83;19.40;;;12.70;99.90;;;;;;4145045;28;20034;-66
2022/03/17 03:47:47;;;;;;;28.98;20.73;;;12.70;99.90;;;;;;4128687;28;20033;-67
2022/03/17 03:49:48;;;;;;;29.30;21.45;;;12.70;99.90;;;;;;4149083;28;20465;-66
2022/03/17 03:51:49;;;;;;;26.73;19.33;;;12.70;99.90;;;;;;4144932;28;20429;-67
2022/03/17 03:56:09;;;;;;;32.60;22.50;;;12.70;99.90;;;;;;4147457;28;20068;-66
2022/03/17 03:58:11;;;;;;;30.13;21.50;;;12.60;99.90;;;;;;4145843;28;20030;-66
2022/03/17 04:02:18;;;;;;;30.40;20.20;;;12.60;99.90;;;;;;4142098;28;20160;-66
2022/03/17 04:04:20;;;;;;;31.10;22.42;;;12.60;99.90;;;;;;4146656;28;20038;-67
2022/03/17 04:06:20;;;;;;;30.38;21.20;;;12.60;99.90;;;;;;4143681;28;20445;-66
2022/03/17 04:08:21;;;;;;;31.85;22.00;;;12.60;99.90;;;;;;4145522;28;20044;-66
2022/03/17 04:10:22;;;;;;;31.25;22.58;;;12.50;99.90;;;;;;4143868;28;20046;-67
2022/03/17 04:12:23;;;;;;;28.67;20.70;;;12.50;99.90;;;;;;4145339;28;20069;-66
2022/03/17 04:14:24;;;;;;;30.33;22.60;;;12.50;99.90;;;;;;4145858;28;20080;-67
2022/03/17 04:16:24;;;;;;;31.77;21.23;;;12.50;99.90;;;;;;4144678;28;20038;-66
2022/03/17 04:18:25;;;;;;;31.42;22.05;;;12.50;99.90;;;;;;4147261;28;20041;-66
2022/03/17 04:20:25;;;;;;;33.85;22.95;;;12.40;99.90;;;;;;4145788;28;20164;-67
2022/03/17 04:22:26;;;;;;;32.67;22.42;;;12.40;99.90;;;;;;4145234;28;20054;-67
2022/03/17 04:24:27;;;;;;;32.95;23.85;;;12.40;99.90;;;;;;4146708;28;20042;-67
2022/03/17 04:26:28;;;;;;;32.40;22.48;;;12.40;99.90;;;;;;4145699;28;23494;-67
2022/03/17 04:28:28;;;;;;;34.95;23.88;;;12.40;99.90;;;;;;4144313;28;20041;-66
2022/03/17 04:30:29;;;;;;;33.85;23.20;;;12.30;99.90;;;;;;4148540;28;20401;-67
2022/03/17 04:32:29;;;;;;;34.83;23.08;;;12.30;99.90;;;;;;4145243;28;20050;-67
2022/03/17 04:34:30;;;;;;;34.65;24.63;;;12.30;99.90;;;;;;4145249;28;20461;-67
2022/03/17 04:36:31;;;;;;;37.58;24.63;;;12.20;99.90;;;;;;4144795;28;20409;-67
2022/03/17 04:38:32;;;;;;;33.00;24.48;;;12.20;99.90;;;;;;4127788;28;20038;-67
2022/03/17 04:40:32;;;;;;;33.67;23.38;;;12.20;99.90;;;;;;4144861;28;20038;-67
2022/03/17 04:42:33;;;;;;;31.75;23.25;;;12.10;99.90;;;;;;4145438;28;20035;-67
2022/03/17 04:44:34;;;;;;;31.30;22.77;;;12.00;99.90;;;;;;4145296;28;22608;-67
2022/03/17 04:46:35;;;;;;;30.70;22.45;;;12.10;99.90;;;;;;4144553;28;20042;-67
2022/03/17 04:48:37;;;;;;;30.15;21.92;;;12.10;99.90;;;;;;4144748;28;20034;-67
2022/03/17 04:50:38;;;;;;;32.13;22.70;;;12.10;99.90;;;;;;4145165;28;20714;-66
2022/03/17 04:54:57;;;;;;;32.88;23.02;;;12.10;99.90;;;;;;4144893;28;20044;-66
2022/03/17 04:56:58;;;;;;;33.60;23.85;;;12.10;99.90;;;;;;4145498;28;20049;-66
2022/03/17 04:58:59;;;;;;;31.02;21.38;;;12.10;99.90;;;;;;4144994;28;20030;-66
2022/03/17 05:01:00;;;;;;;30.42;20.52;;;12.00;99.90;;;;;;4143979;28;20044;-66
2022/03/17 05:03:01;;;;;;;31.20;22.48;;;12.00;99.90;;;;;;4144377;28;20112;-66
2022/03/17 05:05:01;;;;;;;31.70;22.15;;;12.10;99.90;;;;;;4144553;28;20489;-66
2022/03/17 05:07:02;;;;;;;33.22;23.08;;;12.00;99.90;;;;;;4142892;28;20034;-66
2022/03/17 05:09:04;;;;;;;33.05;21.02;;;12.10;99.90;;;;;;4145130;28;20034;-66
2022/03/17 05:11:07;;;;;;;37.72;22.80;;;12.10;99.90;;;;;;4145129;28;20054;-66
2022/03/17 05:13:09;;;;;;;29.27;20.48;;;12.00;99.90;;;;;;4144620;28;20049;-66
2022/03/17 05:15:10;;;;;;;31.80;20.83;;;12.00;99.90;;;;;;4141510;28;20124;-67
2022/03/17 05:17:11;;;;;;;34.35;21.50;;;12.00;99.90;;;;;;4143946;28;20054;-67
2022/03/17 05:19:11;;;;;;;30.55;21.88;;;12.10;99.90;;;;;;4144396;28;20088;-67
2022/03/17 05:21:12;;;;;;;29.08;19.75;;;12.00;99.90;;;;;;4143993;28;20113;-67
2022/03/17 05:23:15;;;;;;;35.85;22.20;;;12.00;99.90;;;;;;4143382;28;20437;-66
2022/03/17 05:25:16;;;;;;;31.58;20.63;;;12.00;99.90;;;;;;4143313;28;20038;-66
2022/03/17 05:27:16;;;;;;;34.75;20.08;;;11.90;99.90;;;;;;4144195;28;20053;-67
2022/03/17 05:29:17;;;;;;;30.40;20.52;;;11.90;99.90;;;;;;4144264;28;20042;-66
2022/03/17 05:31:17;;;;;;;29.70;18.35;;;11.90;99.90;;;;;;4143304;28;20061;-66
2022/03/17 05:33:18;;;;;;;24.55;17.67;;;11.80;99.90;;;;;;4143999;28;20436;-66
2022/03/17 05:35:19;;;;;;;19.70;14.32;;;11.70;99.90;;;;;;4142912;28;20061;-67
2022/03/17 05:37:19;;;;;;;21.85;13.27;;;11.60;99.90;;;;;;4146972;28;20080;-66
2022/03/17 05:39:20;;;;;;;17.77;12.27;;;11.40;99.90;;;;;;4143447;28;20105;-66
2022/03/17 05:41:22;;;;;;;14.75;10.88;;;11.40;99.90;;;;;;4141107;28;20100;-66
2022/03/17 05:43:23;;;;;;;15.60;11.23;;;11.30;99.90;;;;;;4142654;28;20052;-66
2022/03/17 05:45:28;;;;;;;13.70;10.40;;;11.20;99.90;;;;;;4144393;28;20463;-66
2022/03/17 05:47:40;;;;;;;13.82;10.10;;;11.10;99.90;;;;;;4143236;28;20172;-66
2022/03/17 05:49:41;;;;;;;13.30;9.85;;;10.90;99.90;;;;;;4143800;28;20036;-66
2022/03/17 05:51:41;;;;;;;18.17;11.55;;;10.80;99.90;;;;;;4143785;28;20445;-66
2022/03/17 05:53:42;;;;;;;17.23;11.18;;;10.70;99.90;;;;;;4146974;28;20038;-66
2022/03/17 05:55:42;;;;;;;17.98;12.82;;;10.70;99.90;;;;;;4142278;28;20037;-66
2022/03/17 05:57:46;;;;;;;18.38;12.43;;;10.60;99.90;;;;;;4139892;28;20117;-65
2022/03/17 05:59:47;;;;;;;19.23;12.63;;;10.40;99.90;;;;;;4142552;28;20397;-66
2022/03/17 06:01:47;;;;;;;21.08;13.23;;;10.40;99.90;;;;;;4146087;28;20038;-67
2022/03/17 06:03:48;;;;;;;18.83;13.57;;;10.40;99.90;;;;;;4139545;28;20112;-67
2022/03/17 06:05:48;;;;;;;18.48;12.32;;;10.30;99.90;;;;;;4142601;28;20080;-67
2022/03/17 06:07:51;;;;;;;23.17;14.82;;;10.30;99.90;;;;;;4144194;28;20117;-67
2022/03/17 06:09:55;;;;;;;20.08;13.80;;;10.40;99.90;;;;;;4142789;28;20046;-66
2022/03/17 06:11:57;;;;;;;22.80;16.05;;;10.30;99.90;;;;;;4145793;28;20107;-67
2022/03/17 06:13:59;;;;;;;23.08;14.82;;;10.20;99.90;;;;;;4140316;28;20038;-67
2022/03/17 06:16:00;;;;;;;24.10;15.55;;;10.20;99.90;;;;;;4141077;28;20405;-66
2022/03/17 06:18:03;;;;;;;21.33;14.18;;;10.10;99.90;;;;;;4143206;28;20089;-67
2022/03/17 06:20:04;;;;;;;21.55;14.25;;;10.10;99.90;;;;;;4142645;28;20124;-68
2022/03/17 06:22:04;;;;;;;19.55;13.80;;;10.10;99.90;;;;;;4142076;28;20057;-67
2022/03/17 06:24:05;;;;;;;22.45;13.77;;;10.10;99.90;;;;;;4146619;28;21726;-67
2022/03/17 06:26:06;;;;;;;19.63;13.20;;;10.00;99.90;;;;;;4142547;28;20042;-67
2022/03/17 06:28:10;;;;;;;20.92;14.18;;;10.00;99.90;;;;;;4143651;28;20049;-67
2022/03/17 06:30:13;;;;;;;17.60;12.68;;;10.00;99.90;;;;;;4140957;28;20104;-68
2022/03/17 06:32:14;;;;;;;19.20;12.55;;;9.90;99.90;;;;;;4140618;28;20046;-67
2022/03/17 06:34:14;;;;;;;15.10;11.48;;;9.90;99.90;;;;;;4147446;28;20469;-67
2022/03/17 06:36:15;;;;;;;19.95;13.43;;;9.90;99.90;;;;;;4143818;28;20050;-67
2022/03/17 06:38:16;;;;;;;16.50;12.18;;;9.90;99.90;;;;;;4146445;28;20042;-67
2022/03/17 06:40:17;;;;;;;18.85;12.63;;;9.90;99.90;;;;;;4145539;28;20048;-67
2022/03/17 06:42:18;;;;;;;19.80;13.52;;;9.80;99.90;;;;;;4147732;28;20473;-67
2022/03/17 06:44:18;;;;;;;19.08;13.77;;;9.80;99.90;;;;;;4146142;28;20109;-66
2022/03/17 06:46:19;;;;;;;24.33;14.27;;;9.80;99.90;;;;;;4144691;28;20037;-66
2022/03/17 06:48:19;;;;;;;20.73;13.93;;;9.70;99.90;;;;;;4145492;28;20599;-66
2022/03/17 06:50:21;;;;;;;19.42;12.07;;;9.60;99.90;;;;;;4143752;28;20061;-67
2022/03/17 06:52:22;;;;;;;19.05;11.75;;;9.60;99.90;;;;;;4142591;28;20049;-67
2022/03/17 06:54:23;;;;;;;22.92;11.60;;;9.40;99.90;;;;;;4149650;28;20060;-67
2022/03/17 06:56:23;;;;;;;27.40;11.73;;;9.30;99.90;;;;;;4148550;28;20046;-67
2022/03/17 06:58:24;;;;;;;13.73;9.30;;;9.30;99.90;;;;;;4146317;28;20038;-67
2022/03/17 07:00:24;;;;;;;15.43;8.60;;;9.20;99.90;;;;;;4147600;28;20100;-67
2022/03/17 07:02:25;;;;;;;18.15;8.63;;;9.20;99.90;;;;;;4145063;28;20108;-67
2022/03/17 07:04:26;;;;;;;17.95;7.90;;;9.20;99.90;;;;;;4147234;28;20041;-67
2022/03/17 07:06:26;;;;;;;16.88;6.65;;;9.20;99.90;;;;;;4143706;28;20045;-67
2022/03/17 07:08:27;;;;;;;13.70;6.80;;;9.20;99.90;;;;;;4145836;28;20124;-67
2022/03/17 07:10:27;;;;;;;20.33;7.57;;;9.20;99.90;;;;;;4144929;28;20041;-67
2022/03/17 07:12:28;;;;;;;16.08;6.40;;;9.10;99.90;;;;;;4145777;28;20046;-67
2022/03/17 07:14:29;;;;;;;12.98;6.13;;;9.10;99.90;;;;;;4147583;28;20065;-67
2022/03/17 07:16:29;;;;;;;20.20;6.68;;;9.10;99.90;;;;;;4145362;28;20069;-67
2022/03/17 07:18:30;;;;;;;17.08;5.82;;;9.10;99.90;;;;;;4145064;28;20634;-67
2022/03/17 07:20:31;;;;;;;16.17;5.57;;;9.10;99.90;;;;;;4143816;28;20124;-67
2022/03/17 07:22:31;;;;;;;17.00;6.20;;;9.10;99.90;;;;;;4145216;28;20064;-67
2022/03/17 07:24:32;;;;;;;10.68;5.05;;;9.10;99.90;;;;;;4145326;28;20386;-67
2022/03/17 07:26:32;;;;;;;15.70;5.55;;;9.10;99.90;;;;;;4146779;28;20042;-67
2022/03/17 07:28:33;;;;;;;11.88;5.03;;;9.10;99.90;;;;;;4145432;28;20087;-67
2022/03/17 07:30:34;;;;;;;15.20;5.50;;;9.10;99.90;;;;;;4144312;28;20042;-67
2022/03/17 07:32:34;;;;;;;16.52;5.35;;;9.00;99.90;;;;;;4144909;28;20056;-67
2022/03/17 07:34:35;;;;;;;15.77;5.75;;;9.00;99.90;;;;;;4144258;28;20057;-67
2022/03/17 07:36:36;;;;;;;15.75;5.50;;;9.10;99.90;;;;;;4143496;28;20030;-67
2022/03/17 07:38:36;;;;;;;12.25;4.47;;;9.10;99.90;;;;;;4144755;28;20037;-67
2022/03/17 07:40:37;;;;;;;15.27;5.38;;;9.10;99.90;;;;;;4143708;28;20038;-67
2022/03/17 07:42:37;;;;;;;12.70;4.63;;;9.10;99.90;;;;;;4139886;28;20041;-67
2022/03/17 07:44:38;;;;;;;15.73;4.97;;;9.10;99.90;;;;;;4145223;28;20049;-67
2022/03/17 07:46:38;;;;;;;11.55;4.47;;;9.10;99.90;;;;;;4141142;28;20115;-67
2022/03/17 07:48:41;;;;;;;12.85;4.63;;;9.10;99.90;;;;;;4138927;28;20241;-67
2022/03/17 07:50:41;;;;;;;14.35;4.25;;;9.10;99.90;;;;;;4143048;28;20044;-67
2022/03/17 07:52:42;;;;;;;11.45;3.40;;;9.20;99.90;;;;;;4144625;28;20042;-67
2022/03/17 07:54:45;;;;;;;10.23;3.22;;;9.20;99.90;;;;;;4145393;28;20157;-67
2022/03/17 07:56:46;;;;;;;11.13;3.20;;;9.10;99.90;;;;;;4141751;28;20040;-67
2022/03/17 07:58:47;;;;;;;7.55;3.17;;;9.00;99.90;;;;;;4144027;28;20500;-67
2022/03/17 08:00:48;;;;;;;9.18;2.72;;;9.00;99.90;;;;;;4144004;28;20057;-67
2022/03/17 08:02:49;;;;;;;8.00;2.75;;;9.00;99.90;;;;;;4137622;28;20049;-67
2022/03/17 08:04:50;;;;;;;10.43;3.28;;;9.00;99.90;;;;;;4140604;28;20466;-67
2022/03/17 08:06:53;;;;;;;16.07;3.03;;;9.00;99.90;;;;;;4139302;28;20038;-68
2022/03/17 08:08:54;;;;;;;;;;;9.10;99.90;;;;;;4143559;28;20279;-68
2022/03/17 08:10:57;;;;;;;10.75;2.90;;;9.10;99.90;;;;;;4142867;28;20289;-68
2022/03/17 08:12:59;;;;;;;11.40;3.00;;;9.20;99.90;;;;;;4139609;28;20409;-67
2022/03/17 08:15:00;;;;;;;8.15;3.13;;;9.20;99.90;;;;;;4140275;28;20048;-68
2022/03/17 08:17:01;;;;;;;10.57;2.75;;;9.20;99.90;;;;;;4141485;28;20045;-68
2022/03/17 08:19:01;;;;;;;7.53;2.55;;;9.20;99.90;;;;;;4144231;28;20030;-67
2022/03/17 08:21:02;;;;;;;9.13;2.95;;;9.30;99.90;;;;;;4144175;28;20054;-67
2022/03/17 08:23:03;;;;;;;9.82;2.47;;;9.30;99.90;;;;;;4143454;28;20054;-68
2022/03/17 08:25:06;;;;;;;7.47;2.40;;;9.40;99.90;;;;;;4142357;28;20489;-69
2022/03/17 08:27:07;;;;;;;8.65;2.33;;;9.50;99.90;;;;;;4142054;28;20489;-68
2022/03/17 08:29:08;;;;;;;6.10;2.17;;;9.50;99.90;;;;;;4141921;28;20038;-67
2022/03/17 08:31:08;;;;;;;7.90;2.92;;;9.50;99.90;;;;;;4142267;28;20037;-68
2022/03/17 08:33:09;;;;;;;8.75;2.92;;;9.60;99.90;;;;;;4143297;28;20046;-67
2022/03/17 08:35:14;;;;;;;7.57;2.55;;;9.60;99.90;;;;;;4141226;28;20026;-69
2022/03/17 08:37:14;;;;;;;6.30;2.10;;;9.60;99.90;;;;;;4142098;28;20069;-68
2022/03/17 08:39:16;;;;;;;12.48;2.58;;;9.60;99.90;;;;;;4119839;28;20413;-69
2022/03/17 08:41:20;;;;;;;7.68;2.38;;;9.60;99.90;;;;;;4145202;28;20598;-69
2022/03/17 08:43:20;;;;;;;11.47;2.77;;;9.70;99.90;;;;;;4126221;28;20066;-68
2022/03/17 08:49:59;;;;;;;12.35;3.05;;;9.60;99.90;;;;;;4141955;28;20034;-69
2022/03/17 08:52:01;;;;;;;5.85;2.13;;;9.60;99.90;;;;;;4144985;28;20082;-69
2022/03/17 08:54:02;;;;;;;13.77;2.65;;;9.60;99.90;;;;;;4143432;28;20436;-69
2022/03/17 08:56:03;;;;;;;6.57;1.92;;;9.60;99.90;;;;;;4145958;28;20128;-69
2022/03/17 08:58:05;;;;;;;8.23;2.28;;;9.70;99.90;;;;;;4139806;28;20049;-68
2022/03/17 09:00:07;;;;;;;7.47;2.42;;;9.70;99.90;;;;;;4141008;28;20073;-70
2022/03/17 09:02:11;;;;;;;5.90;1.73;;;9.70;99.90;;;;;;4142918;28;20042;-69
2022/03/17 09:04:13;;;;;;;5.45;2.20;;;9.70;99.90;;;;;;4143174;28;20077;-69
2022/03/17 09:06:14;;;;;;;7.10;2.25;;;9.80;99.90;;;;;;4140985;28;20087;-69
2022/03/17 09:08:15;;;;;;;7.28;2.50;;;9.70;99.90;;;;;;4142221;28;20077;-69
2022/03/17 09:10:16;;;;;;;9.35;2.47;;;9.70;99.90;;;;;;4140755;28;20042;-69
2022/03/17 09:12:18;;;;;;;8.98;2.78;;;9.60;99.90;;;;;;4141226;28;20068;-69
2022/03/17 09:14:19;;;;;;;6.80;1.97;;;9.60;99.90;;;;;;4142014;28;20120;-68
2022/03/17 09:16:19;;;;;;;8.13;2.22;;;9.60;99.90;;;;;;4140447;28;20122;-68
2022/03/17 09:18:21;;;;;;;7.30;2.13;;;9.70;99.90;;;;;;4141550;28;20120;-68
2022/03/17 09:20:22;;;;;;;6.72;2.05;;;9.60;99.90;;;;;;4141720;28;20042;-68
2022/03/17 09:22:22;;;;;;;4.07;1.88;;;9.70;99.90;;;;;;4140801;28;20053;-69
2022/03/17 09:24:23;;;;;;;6.43;2.08;;;9.70;99.90;;;;;;4141599;28;20152;-69
2022/03/17 09:26:24;;;;;;;6.25;2.08;;;9.70;99.90;;;;;;4141227;28;20477;-69
2022/03/17 09:28:27;;;;;;;9.05;1.90;;;9.70;99.90;;;;;;4144348;28;20113;-69
2022/03/17 09:30:28;;;;;;;8.77;2.35;;;9.70;99.90;;;;;;4142736;28;20128;-69
2022/03/17 09:32:28;;;;;;;5.65;1.67;;;9.70;99.90;;;;;;4140712;28;20057;-69
2022/03/17 09:34:31;;;;;;;9.82;2.10;;;9.70;99.90;;;;;;4142337;28;20029;-69
2022/03/17 09:36:32;;;;;;;5.85;1.85;;;9.70;99.90;;;;;;4139798;28;20477;-69
2022/03/17 09:38:33;;;;;;;13.05;2.45;;;9.70;99.90;;;;;;4142729;28;20030;-69
2022/03/17 09:40:38;;;;;;;9.40;2.17;;;9.70;99.90;;;;;;4143339;28;20462;-69
2022/03/17 09:42:39;;;;;;;12.27;2.45;;;9.70;99.90;;;;;;4141965;28;20045;-69
2022/03/17 09:44:40;;;;;;;9.93;2.55;;;9.70;99.90;;;;;;4142447;28;20053;-69
2022/03/17 09:46:42;;;;;;;8.48;2.00;;;9.70;99.90;;;;;;4142253;28;20034;-69
2022/03/17 09:48:43;;;;;;;10.55;2.65;;;9.70;99.90;;;;;;4144504;28;20034;-69
2022/03/17 09:50:46;;;;;;;11.00;2.80;;;9.70;99.90;;;;;;4143132;28;20030;-69
2022/03/17 09:52:47;;;;;;;;;;;9.70;99.90;;;;;;4142516;28;20045;-69
2022/03/17 09:54:52;;;;;;;13.55;2.92;;;9.70;99.90;;;;;;4142333;28;20456;-69
2022/03/17 09:56:52;;;;;;;7.47;1.90;;;9.70;99.90;;;;;;4141370;28;20098;-69
2022/03/17 09:58:54;;;;;;;7.55;2.22;;;9.70;99.90;;;;;;4143205;28;20440;-68
2022/03/17 10:00:55;;;;;;;7.65;2.50;;;9.80;99.90;;;;;;4141636;28;20057;-68
2022/03/17 10:02:56;;;;;;;6.53;2.22;;;9.80;99.90;;;;;;4143210;28;20030;-70
2022/03/17 10:04:58;;;;;;;9.50;2.40;;;9.80;99.90;;;;;;4144385;28;20337;-69
2022/03/17 10:07:00;;;;;;;13.80;2.08;;;9.80;99.90;;;;;;4141264;28;20462;-69
2022/03/17 10:09:01;;;;;;;7.43;2.00;;;9.80;99.90;;;;;;4144867;28;20038;-69
2022/03/17 10:11:01;;;;;;;8.00;2.22;;;10.00;99.90;;;;;;4145424;28;20040;-69
2022/03/17 10:13:11;;;;;;;8.25;2.33;;;9.90;99.90;;;;;;4146770;28;20046;-69
2022/03/17 10:15:18;;;;;;;8.90;2.10;;;9.90;99.90;;;;;;4146196;28;20045;-70
2022/03/17 10:17:36;;;;;;;14.68;2.92;;;10.00;99.90;;;;;;4142653;28;20037;-69
2022/03/17 10:19:37;;;;;;;11.52;2.83;;;10.00;99.90;;;;;;4145580;28;20499;-69
2022/03/17 10:21:38;;;;;;;7.07;2.20;;;10.00;99.90;;;;;;4145233;28;20118;-69
2022/03/17 10:23:49;;;;;;;10.00;2.65;;;10.00;99.90;;;;;;4143022;28;20049;-69
2022/03/17 10:25:55;;;;;;;7.10;2.15;;;10.10;99.90;;;;;;4143068;28;20038;-69
2022/03/17 10:27:57;;;;;;;9.07;2.70;;;10.10;99.90;;;;;;4142985;28;20119;-69
2022/03/17 10:30:03;;;;;;;11.50;2.85;;;10.00;99.90;;;;;;4142423;28;20040;-69
2022/03/17 10:32:05;;;;;;;7.68;2.50;;;10.00;99.90;;;;;;4142583;28;20113;-68
2022/03/17 10:34:06;;;;;;;10.07;2.35;;;10.10;99.90;;;;;;4145572;28;20041;-69
2022/03/17 10:36:21;;;;;;;10.38;2.45;;;10.10;99.90;;;;;;4145513;28;20033;-68
2022/03/17 10:38:27;;;;;;;11.18;2.90;;;10.20;99.90;;;;;;4143406;28;20030;-68
2022/03/17 10:40:31;;;;;;;10.55;2.72;;;10.10;99.90;;;;;;4144699;28;20362;-68